createdAt,value
2018-11-14T00:00:06.245Z,11.43
2018-11-14T00:02:33.869Z,12.37
2018-11-14T00:05:02.143Z,12.17
2018-11-14T00:07:29.785Z,10.73
2018-11-14T00:10:12.353Z,12.67
2018-11-14T00:12:40.006Z,12.13
2018-11-14T00:15:12.420Z,12.80
2018-11-14T00:17:40.809Z,13.00
2018-11-14T00:20:09.516Z,12.27
2018-11-14T00:22:37.261Z,11.60
2018-11-14T00:25:05.215Z,12.90
2018-11-14T00:27:33.000Z,14.97
2018-11-14T00:30:00.551Z,12.40
2018-11-14T00:32:28.246Z,13.83
2018-11-14T00:34:55.828Z,13.10
2018-11-14T00:37:23.393Z,14.03
2018-11-14T00:39:51.129Z,13.53
2018-11-14T00:42:18.873Z,16.23
2018-11-14T00:44:46.516Z,15.73
2018-11-14T00:47:14.287Z,14.87
2018-11-14T00:49:42.013Z,16.07
2018-11-14T00:52:09.708Z,16.07
2018-11-14T00:54:37.308Z,17.17
2018-11-14T00:57:04.969Z,15.97
2018-11-14T00:59:32.580Z,17.17
2018-11-14T01:02:00.299Z,18.23
2018-11-14T01:04:28.157Z,18.30
2018-11-14T01:06:56.066Z,17.40
2018-11-14T01:09:23.816Z,17.83
2018-11-14T01:11:51.492Z,18.70
2018-11-14T01:14:19.220Z,18.27
2018-11-14T01:16:47.228Z,19.10
2018-11-14T01:19:15.339Z,18.77
2018-11-14T01:21:43.053Z,19.73
2018-11-14T01:24:10.736Z,20.67
2018-11-14T01:26:38.306Z,20.23
2018-11-14T01:29:05.942Z,21.73
2018-11-14T01:31:33.832Z,20.87
2018-11-14T01:34:01.566Z,19.47
2018-11-14T01:36:29.203Z,21.80
2018-11-14T01:38:57.003Z,21.53
2018-11-14T01:41:25.078Z,20.20
2018-11-14T01:43:52.923Z,22.43
2018-11-14T01:46:20.704Z,22.33
2018-11-14T01:48:48.459Z,22.43
2018-11-14T01:51:16.128Z,22.40
2018-11-14T01:53:43.767Z,22.87
2018-11-14T01:56:11.412Z,23.00
2018-11-14T01:58:39.060Z,22.73
2018-11-14T02:01:06.761Z,22.33
2018-11-14T02:03:34.531Z,22.40
2018-11-14T02:06:02.161Z,24.53
2018-11-14T02:08:29.779Z,24.30
2018-11-14T02:10:57.522Z,24.13
2018-11-14T02:13:25.329Z,22.30
2018-11-14T02:15:52.952Z,24.83
2018-11-14T02:18:20.551Z,23.73
2018-11-14T02:20:48.161Z,24.60
2018-11-14T02:23:15.790Z,23.70
2018-11-14T02:25:43.378Z,25.50
2018-11-14T02:28:10.995Z,24.67
2018-11-14T02:30:38.621Z,25.87
2018-11-14T02:33:06.217Z,24.00
2018-11-14T02:35:33.834Z,24.50
2018-11-14T02:38:01.540Z,24.40
2018-11-14T02:40:29.200Z,23.20
2018-11-14T02:42:56.821Z,22.50
2018-11-14T02:45:24.556Z,24.60
2018-11-14T02:47:52.201Z,23.70
2018-11-14T02:50:19.918Z,24.23
2018-11-14T02:52:47.684Z,24.23
2018-11-14T02:55:16.246Z,22.67
2018-11-14T02:57:44.279Z,23.20
2018-11-14T03:00:14.003Z,23.23
2018-11-14T03:02:42.252Z,22.63
2018-11-14T03:05:10.202Z,23.50
2018-11-14T03:07:38.159Z,24.30
2018-11-14T03:10:09.355Z,23.50
2018-11-14T03:12:37.122Z,25.23
2018-11-14T03:15:07.396Z,25.33
2018-11-14T03:17:35.049Z,24.40
2018-11-14T03:20:02.951Z,25.03
2018-11-14T03:22:30.554Z,26.30
2018-11-14T03:24:58.211Z,23.30
2018-11-14T03:27:26.063Z,25.43
2018-11-14T03:29:53.614Z,25.77
2018-11-14T03:32:21.193Z,26.17
2018-11-14T03:34:48.884Z,23.83
2018-11-14T03:37:16.519Z,24.47
2018-11-14T03:39:44.135Z,25.93
2018-11-14T03:42:11.704Z,25.17
2018-11-14T03:44:39.289Z,24.17
2018-11-14T03:47:07.124Z,26.30
2018-11-14T03:49:34.755Z,24.13
2018-11-14T03:52:02.373Z,25.93
2018-11-14T03:54:30.053Z,26.80
2018-11-14T03:56:57.742Z,26.60
2018-11-14T03:59:25.327Z,25.83
2018-11-14T04:01:53.013Z,24.50
2018-11-14T04:04:20.614Z,27.77
2018-11-14T04:06:48.190Z,28.70
2018-11-14T04:09:15.945Z,27.90
2018-11-14T04:11:43.758Z,27.27
2018-11-14T04:14:11.617Z,27.87
2018-11-14T04:16:39.481Z,29.73
2018-11-14T04:19:07.652Z,26.90
2018-11-14T04:21:35.626Z,30.97
2018-11-14T04:24:03.584Z,30.80
2018-11-14T04:26:31.421Z,30.40
2018-11-14T04:28:59.494Z,32.67
2018-11-14T04:31:27.507Z,35.27
2018-11-14T04:33:55.252Z,36.67
2018-11-14T04:36:23.097Z,36.77
2018-11-14T04:38:50.992Z,36.50
2018-11-14T04:41:18.908Z,37.83
2018-11-14T04:43:46.784Z,39.07
2018-11-14T04:46:14.593Z,38.97
2018-11-14T04:48:42.663Z,39.60
2018-11-14T04:51:10.585Z,38.60
2018-11-14T04:53:38.616Z,38.20
2018-11-14T04:56:06.585Z,39.57
2018-11-14T04:58:34.545Z,41.43
2018-11-14T05:01:02.503Z,43.03
2018-11-14T05:03:30.371Z,39.97
2018-11-14T05:05:58.246Z,39.43
2018-11-14T05:08:26.275Z,39.20
2018-11-14T05:10:54.503Z,40.33
2018-11-14T05:13:22.351Z,40.00
2018-11-14T05:15:50.197Z,39.83
2018-11-14T05:18:17.979Z,41.83
2018-11-14T05:20:46.432Z,43.43
2018-11-14T05:23:14.105Z,40.47
2018-11-14T05:25:41.740Z,43.47
2018-11-14T05:28:09.352Z,41.20
2018-11-14T05:30:37.059Z,42.93
2018-11-14T05:33:05.409Z,41.07
2018-11-14T05:35:33.650Z,41.00
2018-11-14T05:38:01.320Z,42.10
2018-11-14T05:40:29.067Z,42.93
2018-11-14T05:42:56.728Z,42.10
2018-11-14T05:45:25.415Z,40.20
2018-11-14T05:47:53.060Z,44.67
2018-11-14T05:50:21.657Z,44.00
2018-11-14T05:52:49.589Z,44.97
2018-11-14T05:55:17.542Z,48.47
2018-11-14T05:57:45.273Z,45.17
2018-11-14T06:00:25.062Z,44.27
2018-11-14T06:02:52.788Z,44.23
2018-11-14T06:05:20.525Z,43.50
2018-11-14T06:07:48.320Z,43.57
2018-11-14T06:10:15.999Z,44.00
2018-11-14T06:12:43.818Z,43.73
2018-11-14T06:15:13.935Z,44.60
2018-11-14T06:17:42.551Z,44.00
2018-11-14T06:20:12.596Z,43.33
2018-11-14T06:22:40.552Z,43.47
2018-11-14T06:25:36.352Z,43.07
2018-11-14T06:28:05.321Z,45.13
2018-11-14T06:30:33.710Z,42.97
2018-11-14T06:33:02.321Z,45.60
2018-11-14T06:35:29.894Z,44.10
2018-11-14T06:37:57.792Z,46.97
2018-11-14T06:40:25.512Z,43.73
2018-11-14T06:42:53.232Z,42.80
2018-11-14T06:45:22.207Z,43.57
2018-11-14T06:47:51.083Z,39.00
2018-11-14T06:50:18.648Z,38.43
2018-11-14T06:52:47.543Z,42.50
2018-11-14T06:55:16.096Z,38.77
2018-11-14T06:57:43.674Z,39.67
2018-11-14T07:00:14.414Z,38.23
2018-11-14T07:02:42.679Z,40.10
2018-11-14T07:05:12.681Z,40.10
2018-11-14T07:07:40.356Z,41.63
2018-11-14T07:10:09.744Z,40.20
2018-11-14T07:12:37.402Z,40.40
2018-11-14T07:15:07.440Z,37.47
2018-11-14T07:17:35.218Z,40.33
2018-11-14T07:20:03.612Z,35.87
2018-11-14T07:22:31.180Z,36.50
2018-11-14T07:24:58.829Z,39.20
2018-11-14T07:27:26.873Z,38.97
2018-11-14T07:29:54.400Z,36.77
2018-11-14T07:32:21.972Z,38.73
2018-11-14T07:34:49.624Z,37.70
2018-11-14T07:37:17.268Z,37.83
2018-11-14T07:39:44.893Z,34.57
2018-11-14T07:42:12.636Z,36.10
2018-11-14T07:44:40.187Z,36.00
2018-11-14T07:47:07.896Z,38.00
2018-11-14T07:49:35.510Z,33.40
2018-11-14T07:52:03.159Z,35.87
2018-11-14T07:54:30.925Z,35.30
2018-11-14T07:56:58.709Z,34.30
2018-11-14T07:59:26.327Z,36.23
2018-11-14T08:01:54.023Z,32.97
2018-11-14T08:04:22.169Z,36.67
2018-11-14T08:06:49.820Z,33.33
2018-11-14T08:09:17.436Z,36.83
2018-11-14T08:11:45.014Z,35.07
2018-11-14T08:14:12.642Z,32.33
2018-11-14T08:16:40.456Z,33.63
2018-11-14T08:19:08.127Z,33.50
2018-11-14T08:21:35.782Z,33.80
2018-11-14T08:24:03.352Z,31.63
2018-11-14T08:26:30.910Z,30.00
2018-11-14T08:28:58.969Z,30.40
2018-11-14T08:31:26.653Z,31.63
2018-11-14T08:33:54.198Z,30.67
2018-11-14T08:36:21.791Z,30.37
2018-11-14T08:38:49.404Z,29.50
2018-11-14T08:41:17.036Z,32.03
2018-11-14T08:43:44.665Z,30.80
2018-11-14T08:46:12.335Z,29.13
2018-11-14T08:48:39.962Z,28.40
2018-11-14T08:51:07.952Z,27.63
2018-11-14T08:53:35.635Z,28.13
2018-11-14T08:56:03.735Z,27.63
2018-11-14T08:58:31.799Z,28.60
2018-11-14T09:00:59.771Z,30.73
2018-11-14T09:03:27.471Z,27.57
2018-11-14T09:05:55.139Z,27.80
2018-11-14T09:08:22.817Z,26.30
2018-11-14T09:10:50.492Z,26.97
2018-11-14T09:13:18.638Z,28.10
2018-11-14T09:15:46.283Z,25.50
2018-11-14T09:18:14.051Z,24.77
2018-11-14T09:20:41.619Z,23.97
2018-11-14T09:23:09.313Z,24.97
2018-11-14T09:25:36.880Z,25.20
2018-11-14T09:28:04.752Z,25.90
2018-11-14T09:30:32.397Z,24.07
2018-11-14T09:33:00.055Z,22.37
2018-11-14T09:35:28.358Z,23.73
2018-11-14T09:37:57.327Z,26.20
2018-11-14T09:40:26.607Z,24.10
2018-11-14T09:42:54.330Z,23.30
2018-11-14T09:45:24.492Z,22.33
2018-11-14T09:47:52.128Z,23.20
2018-11-14T09:50:21.164Z,22.47
2018-11-14T09:52:51.249Z,22.73
2018-11-14T09:55:18.864Z,22.37
2018-11-14T09:57:46.839Z,23.50
2018-11-14T10:00:17.881Z,21.10
2018-11-14T10:02:47.770Z,23.80
2018-11-14T10:05:17.211Z,23.57
2018-11-14T10:07:45.319Z,23.30
2018-11-14T10:10:14.412Z,22.03
2018-11-14T10:12:42.052Z,21.77
2018-11-14T10:15:12.224Z,23.10
2018-11-14T10:17:40.520Z,19.90
2018-11-14T10:20:10.457Z,21.10
2018-11-14T10:22:38.381Z,20.97
2018-11-14T10:25:06.241Z,20.07
2018-11-14T10:27:34.363Z,19.67
2018-11-14T10:30:02.312Z,21.37
2018-11-14T10:32:30.118Z,22.17
2018-11-14T10:34:57.958Z,19.90
2018-11-14T10:37:25.559Z,21.00
2018-11-14T10:39:53.165Z,20.17
2018-11-14T10:42:20.774Z,20.40
2018-11-14T10:44:49.295Z,20.30
2018-11-14T10:47:17.036Z,21.40
2018-11-14T10:49:44.806Z,20.80
2018-11-14T10:52:12.454Z,20.20
2018-11-14T10:54:40.063Z,18.50
2018-11-14T10:57:07.726Z,18.27
2018-11-14T10:59:35.410Z,19.47
2018-11-14T11:02:09.069Z,18.53
2018-11-14T11:04:42.297Z,17.20
2018-11-14T11:07:15.688Z,17.00
2018-11-14T11:09:48.960Z,17.40
2018-11-14T11:12:22.177Z,15.90
2018-11-14T11:14:56.039Z,16.40
2018-11-14T11:18:27.030Z,17.97
2018-11-14T11:20:54.640Z,17.23
2018-11-14T11:23:22.872Z,14.20
2018-11-14T11:25:50.475Z,14.97
2018-11-14T11:28:18.136Z,15.20
2018-11-14T11:30:46.388Z,16.13
2018-11-14T11:33:13.941Z,15.40
2018-11-14T11:35:41.751Z,16.33
2018-11-14T11:38:09.743Z,15.23
2018-11-14T11:40:37.373Z,13.97
2018-11-14T11:43:05.556Z,14.73
2018-11-14T11:45:33.773Z,14.90
2018-11-14T11:48:01.708Z,14.67
2018-11-14T11:50:29.678Z,16.70
2018-11-14T11:52:57.283Z,15.50
2018-11-14T11:55:24.908Z,14.57
2018-11-14T11:57:52.863Z,15.10
2018-11-14T12:00:20.688Z,13.80
2018-11-14T12:02:49.473Z,14.90
2018-11-14T12:05:17.073Z,13.40
2018-11-14T12:07:44.672Z,14.37
2018-11-14T12:10:14.234Z,13.40
2018-11-14T12:12:42.716Z,15.10
2018-11-14T12:15:11.238Z,14.20
2018-11-14T12:17:39.549Z,14.53
2018-11-14T12:20:08.638Z,14.17
2018-11-14T12:22:36.856Z,14.53
2018-11-14T12:25:05.056Z,13.10
2018-11-14T12:27:33.325Z,14.90
2018-11-14T12:30:00.994Z,13.97
2018-11-14T12:32:28.494Z,14.07
2018-11-14T12:34:56.112Z,14.80
2018-11-14T12:37:23.769Z,13.37
2018-11-14T12:39:51.364Z,15.10
2018-11-14T12:42:18.991Z,14.53
2018-11-14T12:44:46.580Z,12.83
2018-11-14T12:47:14.233Z,13.93
2018-11-14T12:49:41.856Z,13.73
2018-11-14T12:52:09.433Z,14.23
2018-11-14T12:54:37.151Z,13.63
2018-11-14T12:57:04.768Z,13.47
2018-11-14T12:59:32.455Z,14.93
2018-11-14T13:02:00.102Z,13.40
2018-11-14T13:04:27.732Z,11.57
2018-11-14T13:06:55.388Z,13.10
2018-11-14T13:09:22.945Z,12.27
2018-11-14T13:11:50.611Z,13.50
2018-11-14T13:14:18.284Z,11.47
2018-11-14T13:16:45.988Z,11.67
2018-11-14T13:19:13.944Z,11.40
2018-11-14T13:21:41.588Z,10.40
2018-11-14T13:24:09.335Z,10.67
2018-11-14T13:26:37.144Z,11.13
2018-11-14T13:29:04.895Z,10.40
2018-11-14T13:31:32.543Z,10.30
2018-11-14T13:34:00.333Z,10.80
2018-11-14T13:36:28.302Z,10.73
2018-11-14T13:38:56.059Z,10.27
2018-11-14T13:41:23.895Z,10.30
2018-11-14T13:43:51.556Z,10.00
2018-11-14T13:46:19.307Z,9.17
2018-11-14T13:48:47.013Z,8.90
2018-11-14T13:51:14.930Z,9.20
2018-11-14T13:53:42.273Z,12.33
2018-11-14T13:56:09.888Z,8.60
2018-11-14T13:58:37.519Z,9.00
2018-11-14T14:01:05.207Z,8.67
2018-11-14T14:03:33.048Z,11.47
2018-11-14T14:06:01.090Z,9.43
2018-11-14T14:08:28.797Z,9.43
2018-11-14T14:10:56.479Z,8.93
2018-11-14T14:13:24.139Z,8.97
2018-11-14T14:15:51.821Z,9.10
2018-11-14T14:18:19.868Z,9.30
2018-11-14T14:20:47.868Z,8.20
2018-11-14T14:23:15.827Z,7.93
2018-11-14T14:25:43.408Z,8.30
2018-11-14T14:28:11.088Z,7.90
2018-11-14T14:33:41.507Z,7.70
2018-11-14T14:36:09.252Z,7.67
2018-11-14T14:38:36.867Z,6.97
2018-11-14T14:41:04.978Z,6.43
2018-11-14T14:43:32.609Z,8.00
2018-11-14T14:46:00.668Z,8.40
2018-11-14T14:48:28.356Z,7.20
2018-11-14T14:50:56.091Z,7.53
2018-11-14T14:53:23.770Z,7.70
2018-11-14T14:55:51.635Z,8.30
2018-11-14T14:58:19.385Z,7.10
2018-11-14T15:00:47.113Z,6.90
2018-11-14T15:03:15.013Z,6.80
2018-11-14T15:05:42.615Z,8.03
2018-11-14T15:08:10.238Z,6.60
2018-11-14T15:10:37.904Z,7.60
2018-11-14T15:13:05.628Z,7.23
2018-11-14T15:15:33.213Z,7.10
2018-11-14T15:18:00.904Z,8.27
2018-11-14T15:20:28.545Z,8.10
2018-11-14T15:22:56.127Z,6.90
2018-11-14T15:25:23.864Z,6.60
2018-11-14T15:27:51.711Z,7.33
2018-11-14T15:30:26.395Z,6.30
2018-11-14T15:32:54.047Z,6.13
2018-11-14T15:35:21.884Z,6.43
2018-11-14T15:37:49.402Z,6.03
2018-11-14T15:40:18.127Z,5.80
2018-11-14T15:42:46.013Z,5.27
2018-11-14T15:45:21.892Z,6.57
2018-11-14T15:47:49.546Z,5.90
2018-11-14T15:50:19.450Z,5.77
2018-11-14T15:52:49.316Z,5.73
2018-11-14T15:55:18.068Z,5.80
2018-11-14T15:57:45.778Z,5.97
2018-11-14T16:00:18.084Z,5.57
2018-11-14T16:02:45.726Z,8.80
2018-11-14T16:05:14.736Z,7.30
2018-11-14T16:07:43.341Z,6.13
2018-11-14T16:10:12.326Z,5.80
2018-11-14T16:12:40.703Z,5.80
2018-11-14T16:15:10.287Z,6.13
2018-11-14T16:17:38.469Z,6.33
2018-11-14T16:20:07.951Z,6.27
2018-11-14T16:22:35.559Z,6.30
2018-11-14T16:25:03.513Z,8.00
2018-11-14T16:27:31.358Z,6.10
2018-11-14T16:29:58.954Z,6.97
2018-11-14T16:32:26.531Z,8.03
2018-11-14T16:34:54.082Z,9.80
2018-11-14T16:37:21.812Z,8.93
2018-11-14T16:39:49.735Z,10.33
2018-11-14T16:42:17.371Z,10.00
2018-11-14T16:44:45.028Z,10.57
2018-11-14T16:47:15.931Z,11.10
2018-11-14T16:49:43.643Z,9.03
2018-11-14T16:52:11.186Z,10.73
2018-11-14T16:54:38.780Z,8.30
2018-11-14T16:57:06.444Z,10.03
2018-11-14T16:59:34.134Z,10.90
2018-11-14T17:02:01.862Z,11.70
2018-11-14T17:04:29.652Z,11.10
2018-11-14T17:06:57.465Z,13.97
2018-11-14T17:09:25.028Z,15.10
2018-11-14T17:11:52.755Z,15.67
2018-11-14T17:14:20.499Z,15.57
2018-11-14T17:16:48.035Z,16.50
2018-11-14T17:19:15.660Z,15.47
2018-11-14T17:21:43.303Z,15.47
2018-11-14T17:24:15.548Z,15.60
2018-11-14T17:26:43.210Z,10.90
2018-11-14T17:29:10.816Z,10.40
2018-11-14T17:31:38.466Z,10.50
2018-11-14T17:34:06.481Z,11.83
2018-11-14T17:36:35.004Z,14.33
2018-11-14T17:39:03.965Z,14.07
2018-11-14T17:41:31.817Z,13.50
2018-11-14T17:43:59.978Z,15.77
2018-11-14T17:46:27.600Z,13.73
2018-11-14T17:48:55.275Z,10.53
2018-11-14T17:51:23.127Z,9.80
2018-11-14T17:53:50.859Z,8.93
2018-11-14T17:56:18.659Z,7.63
2018-11-14T17:58:46.326Z,9.93
2018-11-14T18:01:14.097Z,9.90
2018-11-14T18:03:42.005Z,8.23
2018-11-14T18:06:09.681Z,7.70
2018-11-14T18:08:37.315Z,6.63
2018-11-14T18:11:05.535Z,8.80
2018-11-14T18:13:33.992Z,6.73
2018-11-14T18:16:01.744Z,8.40
2018-11-14T18:18:29.559Z,8.53
2018-11-14T18:20:57.555Z,8.60
2018-11-14T18:23:25.247Z,9.80
2018-11-14T18:25:52.840Z,11.07
2018-11-14T18:28:20.590Z,13.53
2018-11-14T18:30:48.387Z,10.97
2018-11-14T18:33:15.883Z,12.80
2018-11-14T18:35:45.632Z,15.70
2018-11-14T18:38:13.293Z,14.80
2018-11-14T18:40:41.230Z,14.60
2018-11-14T18:43:09.266Z,15.57
2018-11-14T18:45:36.926Z,14.30
2018-11-14T18:48:05.331Z,14.10
2018-11-14T18:50:33.410Z,13.50
2018-11-14T18:53:01.058Z,14.90
2018-11-14T18:55:31.151Z,13.40
2018-11-14T18:58:02.055Z,12.43
2018-11-14T19:00:31.261Z,13.80
2018-11-14T19:02:59.173Z,13.30
2018-11-14T19:05:26.781Z,15.70
2018-11-14T19:07:54.538Z,13.87
2018-11-14T19:10:26.928Z,14.53
2018-11-14T19:12:54.562Z,14.37
2018-11-14T19:15:25.363Z,11.60
2018-11-14T19:17:53.229Z,12.87
2018-11-14T19:20:23.911Z,12.67
2018-11-14T19:22:53.392Z,11.37
2018-11-14T19:25:22.624Z,11.77
2018-11-14T19:27:50.339Z,10.70
2018-11-14T19:30:21.285Z,10.13
2018-11-14T19:32:50.234Z,9.60
2018-11-14T19:35:18.128Z,10.07
2018-11-14T19:37:46.940Z,8.73
2018-11-14T19:40:16.017Z,10.70
2018-11-14T19:42:44.232Z,10.47
2018-11-14T19:45:14.868Z,11.03
2018-11-14T19:47:42.982Z,12.87
2018-11-14T19:50:12.729Z,13.60
2018-11-14T19:52:40.823Z,13.20
2018-11-14T19:55:10.045Z,14.67
2018-11-14T19:57:37.976Z,13.40
2018-11-14T20:00:10.270Z,12.23
2018-11-14T20:02:38.275Z,14.20
2018-11-14T20:05:07.167Z,12.23
2018-11-14T20:07:35.279Z,12.80
2018-11-14T20:10:04.122Z,11.50
2018-11-14T20:12:32.102Z,11.73
2018-11-14T20:15:00.189Z,10.40
2018-11-14T20:17:27.937Z,12.47
2018-11-14T20:19:55.503Z,12.20
2018-11-14T20:22:23.243Z,12.17
2018-11-14T20:24:51.595Z,11.20
2018-11-14T20:27:19.205Z,11.90
2018-11-14T20:29:46.891Z,12.27
2018-11-14T20:32:14.555Z,13.37
2018-11-14T20:34:42.229Z,15.00
2018-11-14T20:37:09.894Z,11.93
2018-11-14T20:39:37.523Z,12.77
2018-11-14T20:42:05.755Z,11.23
2018-11-14T20:44:33.322Z,12.43
2018-11-14T20:47:00.887Z,11.57
2018-11-14T20:49:28.528Z,13.40
2018-11-14T20:51:56.084Z,12.00
2018-11-14T20:54:23.768Z,12.40
2018-11-14T20:56:52.581Z,12.87
2018-11-14T20:59:20.419Z,11.70
2018-11-14T21:01:48.001Z,12.80
2018-11-14T21:04:15.527Z,13.53
2018-11-14T21:06:43.111Z,13.07
2018-11-14T21:09:11.136Z,13.57
2018-11-14T21:11:38.830Z,11.20
2018-11-14T21:14:06.509Z,12.60
2018-11-14T21:16:34.138Z,12.60
2018-11-14T21:19:01.698Z,13.70
2018-11-14T21:21:29.345Z,12.43
2018-11-14T21:23:57.059Z,13.50
2018-11-14T21:26:24.893Z,11.27
2018-11-14T21:28:53.023Z,11.57
2018-11-14T21:31:20.661Z,13.30
2018-11-14T21:33:48.287Z,11.73
2018-11-14T21:36:16.457Z,12.70
2018-11-14T21:38:44.273Z,12.27
2018-11-14T21:41:12.016Z,13.30
2018-11-14T21:43:39.768Z,12.93
2018-11-14T21:46:07.288Z,13.30
2018-11-14T21:48:34.902Z,13.27
2018-11-14T21:51:02.473Z,12.20
2018-11-14T21:53:30.022Z,13.07
2018-11-14T21:55:57.882Z,12.70
2018-11-14T21:58:25.667Z,14.30
2018-11-14T22:00:54.111Z,14.13
2018-11-14T22:03:21.668Z,12.77
2018-11-14T22:05:49.573Z,13.00
2018-11-14T22:08:17.219Z,14.43
2018-11-14T22:10:44.851Z,14.80
2018-11-14T22:13:13.444Z,12.73
2018-11-14T22:15:41.036Z,12.20
2018-11-14T22:18:08.940Z,14.10
2018-11-14T22:20:36.510Z,14.67
2018-11-14T22:23:04.512Z,12.97
2018-11-14T22:25:32.131Z,12.80
2018-11-14T22:27:59.860Z,15.93
2018-11-14T22:30:31.643Z,15.30
2018-11-14T22:32:59.352Z,14.50
2018-11-14T22:35:28.236Z,16.03
2018-11-14T22:37:55.875Z,16.63
2018-11-14T22:40:25.916Z,15.83
2018-11-14T22:42:53.684Z,17.93
2018-11-14T22:45:23.572Z,17.17
2018-11-14T22:47:51.143Z,17.07
2018-11-14T22:50:21.632Z,16.83
2018-11-14T22:52:49.634Z,16.73
2018-11-14T22:55:18.480Z,16.73
2018-11-14T22:57:46.943Z,16.30
2018-11-14T23:00:52.255Z,16.40
2018-11-14T23:03:19.803Z,17.23
2018-11-14T23:05:47.480Z,17.13
2018-11-14T23:08:15.104Z,18.80
2018-11-14T23:10:42.715Z,17.90
2018-11-14T23:13:10.380Z,16.93
2018-11-14T23:15:38.015Z,18.37
2018-11-14T23:18:05.546Z,17.33
2018-11-14T23:20:33.345Z,16.80
2018-11-14T23:23:00.991Z,15.13
2018-11-14T23:25:28.817Z,16.10
2018-11-14T23:27:56.589Z,16.80
2018-11-14T23:30:25.620Z,18.00
2018-11-14T23:32:54.844Z,17.87
2018-11-14T23:35:23.828Z,17.17
2018-11-14T23:37:52.775Z,16.27
2018-11-14T23:40:20.564Z,17.63
2018-11-14T23:42:49.125Z,16.90
2018-11-14T23:45:17.594Z,18.20
2018-11-14T23:47:45.898Z,16.47
2018-11-14T23:50:15.006Z,16.30
2018-11-14T23:52:44.095Z,19.57
2018-11-14T23:55:11.765Z,17.53
2018-11-14T23:57:39.730Z,17.17
